KBBB

Benson Municipal Airport

Benson, Minnesota, USA
METAR KBBB 191955Z AUTO 06005KT 4SM RA BKN017 BKN023 OVC028 19/17 A3001 RMK AO2
Observed Flight Rules
Jun-19 @ 19:55 UTC (24 minutes ago) Marginal Visual Flight Rules
Wind Visibility Clouds Conditions
60° at 5 knots 4 miles
  • Broken at 1,700' AGL
  • Broken at 2,300' AGL
  • Overcast at 2,800' AGL
  • Rain
Temperatures Readings
Current 19°C / 66°F
Dewpoint 17°C / 63°F
Humidity 88%
Altimeter 30.01" Hg
Pressure 1016 hPa
Elevation 317
METAR KBBB 191955Z AUTO 06005KT 4SM RA BKN017 BKN023 OVC028 19/17 A3001 RMK AO2
Observed Flight Rules
Jun-19 @ 19:55 UTC
(24 minutes ago)
MVFR
Wind Visibility
60° at 5 knots 4 miles
Clouds
  • Broken at 1,700' AGL
  • Broken at 2,300' AGL
  • Overcast at 2,800' AGL
Conditions
  • Rain
Temperature Dewpoint
19°C / 66°F 17°C / 63°F
Humidity Altimeter Pressure
88% 30.01" Hg 1016 hPa